Metar z pełnej godziny Komunikat METAR ze strony awiacja.imgw.pl Metar G00 EPMO METAR EPMO 171300Z 24010KT 210V270 CAVOK 28/15 Q1018 =